METAR Data
IDs: Format: Raw Decoded Include TAF

Data at: 0729 UTC 27 Sep 2020

METAR for:KVUJ (Albemarle/Stanly Cnt, NC, US)
Text:KVUJ 270715Z AUTO 00000KT 1/4SM FG OVC001 14/14 A3005 RMK AO2 T01350135
Temperature: 13.5°C ( 56°F)
Dewpoint: 13.5°C ( 56°F) [RH = 100%]
Pressure (altimeter):30.05 inches Hg (1017.7 mb)
Winds:calm
Visibility: 0.25 sm ( 0.40 km)
Ceiling:100 feet AGL
Clouds: overcast cloud deck at 100 feet AGL
Weather:FG (fog)
QC Flag:automated observation with no human augmentation